createdAt,value
2017-08-17T00:01:21.352Z,80.90
2017-08-17T00:03:50.301Z,81.40
2017-08-17T00:06:21.755Z,81.30
2017-08-17T00:08:54.022Z,81.20
2017-08-17T00:11:25.263Z,81.40
2017-08-17T00:13:54.933Z,81.60
2017-08-17T00:16:27.245Z,81.60
2017-08-17T00:18:56.796Z,81.60
2017-08-17T00:21:27.170Z,81.90
2017-08-17T00:23:57.802Z,81.90
2017-08-17T00:26:29.573Z,82.30
2017-08-17T00:28:59.063Z,82.80
2017-08-17T00:31:32.713Z,82.90
2017-08-17T00:34:02.369Z,83.40
2017-08-17T00:36:32.082Z,83.50
2017-08-17T00:39:02.708Z,83.60
2017-08-17T00:41:30.934Z,84.10
2017-08-17T00:44:01.921Z,83.90
2017-08-17T00:46:31.259Z,84.10
2017-08-17T00:49:03.384Z,84.10
2017-08-17T00:51:35.946Z,83.80
2017-08-17T00:54:07.169Z,83.90
2017-08-17T00:56:40.180Z,83.80
2017-08-17T00:59:10.540Z,83.80
2017-08-17T01:01:39.853Z,85.10
2017-08-17T01:04:10.790Z,84.70
2017-08-17T01:06:40.386Z,84.70
2017-08-17T01:09:17.732Z,84.70
2017-08-17T01:11:46.217Z,84.60
2017-08-17T01:14:16.834Z,85.00
2017-08-17T01:16:46.558Z,85.20
2017-08-17T01:19:15.759Z,85.20
2017-08-17T01:21:46.421Z,84.90
2017-08-17T01:24:14.911Z,84.30
2017-08-17T01:26:47.444Z,84.50
2017-08-17T01:29:18.834Z,84.50
2017-08-17T01:31:49.156Z,85.20
2017-08-17T01:34:22.119Z,85.10
2017-08-17T01:36:51.776Z,85.20
2017-08-17T01:39:21.532Z,85.40
2017-08-17T01:41:54.061Z,85.60
2017-08-17T01:44:23.786Z,85.80
2017-08-17T01:46:52.686Z,85.60
2017-08-17T01:49:24.547Z,85.50
2017-08-17T01:51:57.539Z,85.50
2017-08-17T01:54:26.583Z,85.80
2017-08-17T01:56:56.672Z,85.90
2017-08-17T01:59:28.811Z,85.90
2017-08-17T02:02:02.513Z,86.00
2017-08-17T02:04:34.724Z,85.90
2017-08-17T02:07:07.050Z,85.90
2017-08-17T02:09:42.291Z,85.70
2017-08-17T02:12:14.830Z,86.20
2017-08-17T02:14:44.816Z,86.10
2017-08-17T02:17:14.911Z,85.20
2017-08-17T02:19:45.098Z,85.80
2017-08-17T02:22:16.744Z,85.70
2017-08-17T02:24:51.211Z,86.30
2017-08-17T02:27:21.231Z,86.30
2017-08-17T02:29:53.092Z,86.20
2017-08-17T02:32:25.993Z,86.40
2017-08-17T02:34:56.884Z,87.60
2017-08-17T02:37:26.389Z,87.60
2017-08-17T02:39:57.530Z,87.20
2017-08-17T02:42:25.864Z,87.20
2017-08-17T02:44:55.253Z,87.70
2017-08-17T02:47:27.824Z,87.40
2017-08-17T02:49:59.480Z,87.30
2017-08-17T02:52:32.772Z,87.40
2017-08-17T02:55:03.917Z,87.30
2017-08-17T02:57:33.339Z,87.00
2017-08-17T03:00:02.618Z,86.90
2017-08-17T03:02:33.895Z,87.80
2017-08-17T03:05:08.781Z,87.00
2017-08-17T03:07:37.693Z,87.10
2017-08-17T03:10:09.336Z,87.50
2017-08-17T03:12:42.842Z,87.40
2017-08-17T03:15:12.940Z,87.30
2017-08-17T03:17:41.551Z,87.30
2017-08-17T03:20:14.295Z,87.20
2017-08-17T03:22:43.177Z,87.10
2017-08-17T03:25:13.732Z,87.40
2017-08-17T03:27:47.419Z,87.50
2017-08-17T03:30:15.839Z,87.40
2017-08-17T03:32:45.141Z,87.60
2017-08-17T03:35:16.898Z,87.80
2017-08-17T03:37:46.166Z,87.80
2017-08-17T03:40:16.676Z,87.90
2017-08-17T03:42:47.720Z,87.70
2017-08-17T03:45:22.090Z,87.90
2017-08-17T03:47:57.803Z,88.00
2017-08-17T03:50:26.896Z,89.60
2017-08-17T03:52:57.467Z,89.60
2017-08-17T03:55:25.175Z,89.70
2017-08-17T03:57:55.705Z,89.60
2017-08-17T04:00:27.709Z,89.40
2017-08-17T04:02:56.762Z,89.30
2017-08-17T04:05:26.880Z,89.30
2017-08-17T04:07:55.260Z,89.00
2017-08-17T04:10:24.601Z,88.50
2017-08-17T04:12:54.257Z,88.80
2017-08-17T04:15:24.033Z,88.50
2017-08-17T04:17:53.558Z,89.00
2017-08-17T04:20:24.808Z,88.70
2017-08-17T04:22:54.558Z,88.90
2017-08-17T04:25:28.616Z,89.80
2017-08-17T04:27:57.890Z,89.80
2017-08-17T04:30:29.807Z,89.60
2017-08-17T04:33:00.799Z,90.00
2017-08-17T04:35:29.023Z,90.20
2017-08-17T04:37:57.248Z,90.30
2017-08-17T04:40:26.803Z,90.20
2017-08-17T04:42:56.153Z,90.20
2017-08-17T04:45:25.345Z,90.40
2017-08-17T04:47:54.585Z,90.40
2017-08-17T04:50:24.800Z,90.40
2017-08-17T04:52:55.738Z,90.50
2017-08-17T04:55:26.399Z,90.50
2017-08-17T04:58:24.037Z,90.50
2017-08-17T05:00:55.039Z,90.70
2017-08-17T05:03:26.011Z,91.00
2017-08-17T05:05:58.214Z,91.20
2017-08-17T05:08:30.558Z,91.10
2017-08-17T05:10:59.400Z,91.10
2017-08-17T05:13:31.646Z,91.00
2017-08-17T05:16:05.828Z,90.80
2017-08-17T05:18:35.316Z,90.70
2017-08-17T05:21:04.708Z,90.60
2017-08-17T05:23:37.621Z,90.10
2017-08-17T05:26:10.694Z,88.70
2017-08-17T05:28:41.386Z,88.40
2017-08-17T05:31:12.178Z,86.90
2017-08-17T05:33:45.203Z,86.60
2017-08-17T05:36:16.503Z,86.20
2017-08-17T05:38:44.987Z,85.70
2017-08-17T05:41:18.046Z,85.40
2017-08-17T05:43:47.883Z,85.20
2017-08-17T05:46:20.465Z,84.90
2017-08-17T05:48:50.048Z,85.20
2017-08-17T05:51:21.516Z,85.30
2017-08-17T05:53:54.858Z,85.40
2017-08-17T05:56:22.572Z,85.40
2017-08-17T05:58:53.087Z,85.50
2017-08-17T06:01:24.290Z,83.80
2017-08-17T06:03:56.513Z,81.70
2017-08-17T06:06:29.495Z,81.70
2017-08-17T06:09:00.861Z,81.30
2017-08-17T06:11:33.663Z,81.50
2017-08-17T06:14:05.217Z,80.40
2017-08-17T06:19:21.464Z,80.30
2017-08-17T06:21:54.216Z,79.50
2017-08-17T06:24:27.360Z,79.50
2017-08-17T06:26:57.406Z,79.50
2017-08-17T06:29:29.128Z,80.40
2017-08-17T06:32:00.628Z,79.70
2017-08-17T06:34:33.991Z,79.30
2017-08-17T06:37:05.932Z,79.30
2017-08-17T06:39:37.510Z,79.80
2017-08-17T06:42:08.882Z,80.70
2017-08-17T06:44:41.862Z,80.60
2017-08-17T06:47:17.361Z,81.10
2017-08-17T06:49:48.746Z,81.00
2017-08-17T06:52:20.310Z,81.60
2017-08-17T06:54:54.922Z,81.90
2017-08-17T06:57:27.983Z,81.80
2017-08-17T06:59:56.834Z,81.80
2017-08-17T07:02:28.471Z,81.80
2017-08-17T07:05:00.631Z,80.60
2017-08-17T07:07:32.110Z,80.40
2017-08-17T07:10:00.099Z,80.70
2017-08-17T07:12:33.731Z,80.00
2017-08-17T07:15:02.736Z,78.50
2017-08-17T07:17:34.885Z,78.20
2017-08-17T07:20:06.416Z,77.10
2017-08-17T07:22:37.762Z,77.10
2017-08-17T07:25:09.213Z,76.60
2017-08-17T07:27:39.758Z,77.10
2017-08-17T07:30:10.678Z,76.70
2017-08-17T07:32:40.738Z,75.10
2017-08-17T07:35:10.126Z,73.20
2017-08-17T07:37:38.107Z,72.80
2017-08-17T07:40:08.581Z,71.80
2017-08-17T07:42:39.625Z,71.00
2017-08-17T07:45:07.280Z,70.70
2017-08-17T07:47:36.449Z,70.80
2017-08-17T07:50:05.929Z,70.50
2017-08-17T07:52:36.516Z,70.40
2017-08-17T07:55:05.655Z,69.40
2017-08-17T07:57:35.253Z,69.00
2017-08-17T08:00:03.485Z,69.30
2017-08-17T08:02:31.194Z,69.20
2017-08-17T08:05:04.266Z,68.10
2017-08-17T08:07:35.274Z,69.10
2017-08-17T08:10:04.298Z,68.40
2017-08-17T08:12:34.183Z,68.20
2017-08-17T08:15:04.979Z,68.20
2017-08-17T08:17:37.263Z,68.50
2017-08-17T08:20:08.883Z,68.40
2017-08-17T08:22:41.310Z,67.80
2017-08-17T08:25:14.036Z,67.40
2017-08-17T08:27:44.456Z,68.10
2017-08-17T08:30:15.599Z,68.40
2017-08-17T08:32:47.343Z,67.80
2017-08-17T08:35:18.402Z,67.70
2017-08-17T08:37:50.258Z,68.20
2017-08-17T08:40:22.720Z,67.30
2017-08-17T08:42:54.700Z,67.30
2017-08-17T08:45:27.672Z,65.30
2017-08-17T08:47:59.241Z,65.80
2017-08-17T08:50:32.075Z,66.00
2017-08-17T08:53:02.808Z,65.20
2017-08-17T08:55:36.676Z,65.00
2017-08-17T08:58:08.674Z,65.00
2017-08-17T09:00:39.507Z,65.00
2017-08-17T09:03:08.132Z,65.00
2017-08-17T09:05:38.240Z,64.80
2017-08-17T09:08:07.816Z,65.70
2017-08-17T09:10:37.425Z,65.10
2017-08-17T09:13:12.185Z,65.30
2017-08-17T09:15:44.098Z,64.10
2017-08-17T09:18:14.474Z,64.50
2017-08-17T09:20:45.955Z,64.20
2017-08-17T09:23:19.995Z,62.50
2017-08-17T09:25:53.017Z,62.50
2017-08-17T09:28:20.677Z,61.90
2017-08-17T09:30:51.921Z,60.80
2017-08-17T09:33:21.862Z,60.10
2017-08-17T09:35:52.525Z,60.70
2017-08-17T09:38:22.769Z,60.20
2017-08-17T09:40:53.236Z,58.90
2017-08-17T09:43:23.810Z,59.70
2017-08-17T09:45:54.576Z,58.50
2017-08-17T09:48:26.528Z,57.70
2017-08-17T09:50:55.361Z,57.90
2017-08-17T09:53:27.185Z,57.30
2017-08-17T09:55:55.892Z,57.20
2017-08-17T09:58:26.908Z,54.90
2017-08-17T10:00:57.846Z,54.90
2017-08-17T10:03:27.417Z,56.00
2017-08-17T10:05:56.590Z,55.70
2017-08-17T10:08:29.189Z,56.10
2017-08-17T10:11:02.276Z,56.00
2017-08-17T10:13:33.055Z,54.60
2017-08-17T10:16:07.516Z,54.00
2017-08-17T10:18:36.379Z,52.80
2017-08-17T10:21:07.649Z,52.70
2017-08-17T10:23:37.847Z,52.80
2017-08-17T10:26:08.074Z,50.80
2017-08-17T10:28:39.194Z,51.20
2017-08-17T10:31:09.296Z,50.70
2017-08-17T10:33:42.641Z,49.60
2017-08-17T10:36:13.862Z,49.40
2017-08-17T10:38:46.273Z,49.50
2017-08-17T10:41:18.201Z,49.50
2017-08-17T10:44:05.024Z,49.20
2017-08-17T10:46:38.029Z,48.20
2017-08-17T10:49:08.949Z,48.20
2017-08-17T10:51:38.042Z,48.60
2017-08-17T10:54:08.668Z,48.80
2017-08-17T10:56:38.792Z,47.50
2017-08-17T10:59:10.659Z,47.50
2017-08-17T11:01:40.240Z,47.70
2017-08-17T11:04:09.388Z,47.70
2017-08-17T11:06:39.163Z,47.80
2017-08-17T11:09:07.746Z,47.80
2017-08-17T11:11:37.353Z,48.60
2017-08-17T11:14:05.831Z,48.50
2017-08-17T11:16:37.802Z,45.70
2017-08-17T11:19:07.679Z,45.70
2017-08-17T11:21:36.161Z,44.80
2017-08-17T11:24:05.767Z,44.90
2017-08-17T11:26:34.885Z,48.10
2017-08-17T11:29:06.086Z,47.00
2017-08-17T11:31:34.972Z,46.90
2017-08-17T11:34:03.823Z,46.30
2017-08-17T11:36:35.343Z,44.10
2017-08-17T11:39:10.482Z,44.70
2017-08-17T11:41:41.176Z,43.40
2017-08-17T11:44:10.905Z,43.40
2017-08-17T11:46:39.772Z,45.40
2017-08-17T11:49:08.970Z,45.00
2017-08-17T11:51:41.034Z,46.10
2017-08-17T11:54:13.661Z,44.10
2017-08-17T11:56:45.079Z,43.70
2017-08-17T11:59:15.820Z,43.70
2017-08-17T12:01:46.060Z,43.90
2017-08-17T12:04:18.945Z,44.30
2017-08-17T12:06:48.674Z,44.00
2017-08-17T12:09:19.669Z,43.50
2017-08-17T12:11:48.346Z,43.50
2017-08-17T12:14:22.222Z,41.80
2017-08-17T12:16:55.832Z,42.70
2017-08-17T12:19:27.045Z,42.30
2017-08-17T12:21:57.946Z,41.50
2017-08-17T12:24:26.777Z,41.50
2017-08-17T12:26:57.098Z,40.90
2017-08-17T12:29:29.308Z,41.50
2017-08-17T12:32:01.940Z,42.80
2017-08-17T12:34:35.717Z,41.30
2017-08-17T12:37:06.907Z,41.20
2017-08-17T12:39:37.799Z,41.60
2017-08-17T12:42:08.672Z,42.40
2017-08-17T12:44:38.243Z,41.70
2017-08-17T12:47:07.748Z,43.70
2017-08-17T12:49:37.995Z,42.50
2017-08-17T12:52:07.802Z,41.00
2017-08-17T12:54:38.056Z,41.20
2017-08-17T12:57:07.941Z,41.20
2017-08-17T12:59:38.181Z,41.00
2017-08-17T13:02:08.406Z,41.00
2017-08-17T13:04:37.344Z,43.00
2017-08-17T13:07:09.971Z,41.60
2017-08-17T13:09:40.580Z,41.30
2017-08-17T13:12:12.336Z,41.20
2017-08-17T13:14:43.983Z,40.00
2017-08-17T13:17:14.235Z,40.40
2017-08-17T13:19:45.121Z,40.40
2017-08-17T13:22:15.625Z,40.90
2017-08-17T13:24:46.069Z,40.60
2017-08-17T13:27:15.491Z,40.60
2017-08-17T13:29:46.131Z,41.00
2017-08-17T13:32:18.141Z,40.60
2017-08-17T13:34:49.171Z,40.50
2017-08-17T13:37:19.533Z,40.90
2017-08-17T13:39:48.162Z,39.40
2017-08-17T13:42:15.876Z,39.20
2017-08-17T13:44:43.531Z,39.70
2017-08-17T13:47:16.257Z,39.60
2017-08-17T13:49:52.154Z,40.10
2017-08-17T13:52:22.889Z,40.40
2017-08-17T13:54:52.228Z,40.10
2017-08-17T13:57:24.084Z,40.60
2017-08-17T13:59:55.047Z,40.30
2017-08-17T14:02:25.051Z,40.90
2017-08-17T14:04:57.791Z,41.40
2017-08-17T14:07:29.679Z,41.40
2017-08-17T14:09:59.572Z,41.90
2017-08-17T14:12:30.667Z,41.90
2017-08-17T14:15:03.744Z,42.00
2017-08-17T14:17:35.410Z,41.90
2017-08-17T14:20:12.611Z,42.30
2017-08-17T14:22:45.851Z,42.60
2017-08-17T14:25:18.812Z,42.10
2017-08-17T14:27:50.206Z,45.40
2017-08-17T14:30:21.503Z,43.00
2017-08-17T14:32:50.916Z,42.10
2017-08-17T14:35:23.736Z,41.70
2017-08-17T14:37:54.587Z,42.10
2017-08-17T14:40:26.686Z,41.40
2017-08-17T14:42:56.394Z,41.30
2017-08-17T14:45:26.254Z,40.80
2017-08-17T14:47:55.578Z,36.80
2017-08-17T14:50:24.089Z,34.70
2017-08-17T14:52:53.898Z,32.00
2017-08-17T14:55:25.549Z,32.00
2017-08-17T14:57:54.734Z,29.90
2017-08-17T15:00:23.423Z,28.40
2017-08-17T15:02:53.226Z,26.70
2017-08-17T15:05:20.843Z,26.30
2017-08-17T15:07:54.264Z,24.60
2017-08-17T15:10:22.055Z,24.60
2017-08-17T15:12:52.622Z,24.20
2017-08-17T15:15:22.190Z,23.30
2017-08-17T15:17:52.316Z,24.30
2017-08-17T15:20:22.839Z,25.90
2017-08-17T15:22:53.284Z,27.10
2017-08-17T15:25:23.323Z,27.20
2017-08-17T15:27:55.448Z,30.80
2017-08-17T15:30:25.148Z,30.70
2017-08-17T15:32:54.931Z,33.40
2017-08-17T15:35:24.880Z,35.30
2017-08-17T15:37:55.477Z,37.10
2017-08-17T15:40:25.113Z,38.20
2017-08-17T15:42:55.440Z,38.60
2017-08-17T15:45:26.693Z,37.10
2017-08-17T15:48:29.571Z,34.40
2017-08-17T15:51:01.248Z,32.30
2017-08-17T15:53:31.147Z,31.10
2017-08-17T15:56:02.189Z,30.60
2017-08-17T15:58:37.135Z,30.10
2017-08-17T16:01:07.328Z,30.40
2017-08-17T16:03:36.640Z,31.40
2017-08-17T16:06:07.677Z,32.00
2017-08-17T16:08:39.219Z,30.20
2017-08-17T16:13:48.006Z,31.40
2017-08-17T16:16:20.628Z,33.40
2017-08-17T16:18:52.409Z,35.20
2017-08-17T16:21:21.585Z,36.80
2017-08-17T16:23:53.185Z,37.60
2017-08-17T16:26:20.901Z,39.30
2017-08-17T16:28:49.791Z,40.40
2017-08-17T16:31:19.908Z,40.50
2017-08-17T16:33:48.399Z,41.70
2017-08-17T16:36:18.632Z,42.30
2017-08-17T16:38:50.297Z,42.50
2017-08-17T16:41:20.591Z,43.30
2017-08-17T16:43:51.273Z,43.70
2017-08-17T16:46:25.429Z,43.90
2017-08-17T16:48:54.520Z,43.90
2017-08-17T16:51:23.297Z,44.10
2017-08-17T16:53:52.252Z,43.80
2017-08-17T16:56:22.037Z,44.00
2017-08-17T16:58:51.771Z,45.20
2017-08-17T17:01:21.829Z,44.30
2017-08-17T17:03:51.579Z,44.90
2017-08-17T17:06:21.187Z,45.60
2017-08-17T17:08:50.384Z,46.80
2017-08-17T17:11:20.677Z,46.20
2017-08-17T17:13:49.068Z,45.80
2017-08-17T17:16:17.167Z,48.00
2017-08-17T17:18:45.248Z,46.30
2017-08-17T17:21:15.790Z,46.30
2017-08-17T17:23:46.550Z,49.40
2017-08-17T17:26:17.167Z,49.40
2017-08-17T17:28:50.726Z,50.00
2017-08-17T17:31:20.795Z,52.20
2017-08-17T17:33:52.287Z,51.30
2017-08-17T17:36:25.180Z,52.00
2017-08-17T17:38:59.089Z,52.20
2017-08-17T17:41:32.368Z,52.60
2017-08-17T17:44:02.368Z,54.20
2017-08-17T17:46:31.401Z,57.10
2017-08-17T17:49:01.085Z,55.90
2017-08-17T17:51:33.455Z,56.80
2017-08-17T17:54:06.629Z,56.80
2017-08-17T17:56:37.126Z,56.80
2017-08-17T17:59:07.017Z,57.00
2017-08-17T18:01:38.086Z,57.70
2017-08-17T18:04:09.023Z,58.90
2017-08-17T18:06:39.806Z,59.60
2017-08-17T18:09:11.000Z,59.80
2017-08-17T18:11:42.347Z,58.20
2017-08-17T18:14:12.669Z,58.10
2017-08-17T18:16:45.026Z,59.20
2017-08-17T18:19:13.932Z,59.50
2017-08-17T18:21:41.540Z,59.60
2017-08-17T18:24:09.116Z,61.70
2017-08-17T18:26:36.711Z,62.80
2017-08-17T18:29:04.301Z,63.40
2017-08-17T18:31:31.918Z,65.20
2017-08-17T18:33:59.532Z,65.60
2017-08-17T18:36:27.871Z,65.50
2017-08-17T18:38:55.474Z,65.40
2017-08-17T18:41:23.487Z,64.30
2017-08-17T18:43:51.076Z,65.30
2017-08-17T18:46:18.678Z,65.70
2017-08-17T18:48:46.273Z,65.70
2017-08-17T18:51:13.881Z,64.20
2017-08-17T18:53:41.476Z,64.10
2017-08-17T18:56:09.092Z,64.60
2017-08-17T18:58:37.461Z,66.50
2017-08-17T19:01:05.061Z,66.50
2017-08-17T19:03:32.939Z,65.70
2017-08-17T19:06:00.563Z,64.30
2017-08-17T19:08:28.919Z,63.80
2017-08-17T19:10:56.511Z,63.80
2017-08-17T19:13:24.106Z,65.30
2017-08-17T19:15:51.698Z,66.90
2017-08-17T19:18:19.290Z,66.30
2017-08-17T19:20:46.920Z,66.90
2017-08-17T19:23:14.528Z,67.50
2017-08-17T19:25:42.136Z,66.10
2017-08-17T19:28:09.716Z,66.50
2017-08-17T19:30:38.388Z,67.30
2017-08-17T19:33:07.345Z,68.10
2017-08-17T19:35:34.917Z,68.00
2017-08-17T19:38:02.573Z,68.30
2017-08-17T19:40:30.146Z,67.40
2017-08-17T19:42:57.755Z,67.60
2017-08-17T19:45:25.343Z,68.20
2017-08-17T19:47:53.230Z,67.40
2017-08-17T19:50:20.850Z,67.60
2017-08-17T19:52:48.444Z,67.70
2017-08-17T19:55:16.072Z,68.10
2017-08-17T19:57:43.660Z,69.40
2017-08-17T20:00:11.285Z,69.90
2017-08-17T20:02:38.853Z,70.30
2017-08-17T20:05:06.527Z,71.10
2017-08-17T20:07:34.114Z,71.40
2017-08-17T20:10:02.072Z,71.00
2017-08-17T20:12:29.699Z,72.70
2017-08-17T20:14:57.278Z,72.40
2017-08-17T20:17:24.878Z,71.70
2017-08-17T20:19:53.204Z,72.80
2017-08-17T20:22:20.790Z,72.70
2017-08-17T20:24:48.406Z,72.80
2017-08-17T20:27:16.035Z,72.70
2017-08-17T20:29:44.374Z,72.80
2017-08-17T20:32:11.990Z,72.80
2017-08-17T20:34:39.568Z,73.20
2017-08-17T20:37:07.427Z,73.00
2017-08-17T20:39:35.015Z,73.60
2017-08-17T20:42:02.659Z,73.40
2017-08-17T20:44:30.290Z,73.40
2017-08-17T20:46:57.881Z,73.80
2017-08-17T20:49:25.454Z,74.00
2017-08-17T20:51:53.017Z,74.20
2017-08-17T20:54:20.629Z,74.60
2017-08-17T20:56:48.199Z,74.60
2017-08-17T20:59:15.801Z,73.50
2017-08-17T21:01:43.386Z,74.70
2017-08-17T21:04:11.330Z,74.80
2017-08-17T21:06:38.919Z,75.30
2017-08-17T21:09:07.316Z,74.80
2017-08-17T21:11:34.921Z,74.70
2017-08-17T21:14:02.562Z,74.80
2017-08-17T21:16:30.208Z,75.00
2017-08-17T21:18:57.818Z,75.10
2017-08-17T21:21:25.417Z,74.00
2017-08-17T21:23:53.017Z,74.60
2017-08-17T21:26:20.588Z,74.80
2017-08-17T21:28:48.158Z,74.50
2017-08-17T21:31:16.070Z,75.50
2017-08-17T21:33:43.706Z,75.10
2017-08-17T21:36:12.065Z,75.40
2017-08-17T21:38:39.685Z,75.40
2017-08-17T21:41:07.267Z,75.30
2017-08-17T21:43:34.904Z,75.20
2017-08-17T21:46:02.558Z,75.30
2017-08-17T21:48:30.143Z,75.40
2017-08-17T21:50:57.773Z,75.60
2017-08-17T21:53:25.362Z,76.50
2017-08-17T21:55:52.948Z,76.30
2017-08-17T21:58:20.620Z,76.90
2017-08-17T22:00:48.202Z,77.10
2017-08-17T22:03:16.117Z,77.70
2017-08-17T22:05:43.706Z,78.20
2017-08-17T22:08:12.037Z,79.20
2017-08-17T22:10:40.446Z,79.10
2017-08-17T22:13:08.237Z,79.10
2017-08-17T22:15:35.893Z,79.50
2017-08-17T22:18:04.304Z,80.20
2017-08-17T22:20:31.938Z,80.20
2017-08-17T22:22:59.555Z,80.20
2017-08-17T22:25:27.144Z,80.60
2017-08-17T22:27:54.820Z,80.60
2017-08-17T22:30:22.708Z,81.00
2017-08-17T22:32:50.301Z,81.00
2017-08-17T22:35:17.901Z,81.70
2017-08-17T22:37:45.500Z,81.80
2017-08-17T22:40:13.130Z,82.10
2017-08-17T22:42:40.723Z,82.40
2017-08-17T22:45:08.314Z,82.20
2017-08-17T22:47:35.904Z,82.50
2017-08-17T22:50:03.526Z,82.60
2017-08-17T22:52:31.107Z,82.80
2017-08-17T22:54:59.469Z,83.40
2017-08-17T22:57:27.421Z,82.60
2017-08-17T22:59:55.007Z,82.70
2017-08-17T23:02:22.570Z,82.80
2017-08-17T23:04:50.182Z,83.10
2017-08-17T23:07:17.773Z,83.20
2017-08-17T23:09:45.358Z,83.40
2017-08-17T23:12:12.936Z,83.60
2017-08-17T23:14:40.532Z,84.00
2017-08-17T23:17:08.085Z,84.10
2017-08-17T23:19:35.955Z,84.40
2017-08-17T23:22:03.524Z,84.90
2017-08-17T23:24:31.119Z,85.10
2017-08-17T23:26:58.708Z,85.10
2017-08-17T23:29:26.324Z,85.10
2017-08-17T23:31:54.685Z,85.30
2017-08-17T23:34:22.299Z,85.30
2017-08-17T23:36:50.014Z,85.80
2017-08-17T23:39:18.396Z,86.30
2017-08-17T23:41:46.053Z,86.30
2017-08-17T23:44:13.638Z,86.70
2017-08-17T23:46:41.493Z,86.60
2017-08-17T23:49:09.095Z,86.60
2017-08-17T23:51:36.693Z,87.00
2017-08-17T23:54:04.305Z,86.80
2017-08-17T23:56:31.893Z,86.70
2017-08-17T23:58:59.460Z,86.80
